createdAt,value
2017-11-21T00:02:00.037Z,1.17
2017-11-21T00:04:27.548Z,0.83
2017-11-21T00:06:55.015Z,0.70
2017-11-21T00:09:22.494Z,0.90
2017-11-21T00:11:49.951Z,1.37
2017-11-21T00:14:17.427Z,0.70
2017-11-21T00:16:44.889Z,1.27
2017-11-21T00:19:12.387Z,0.90
2017-11-21T00:21:39.842Z,0.93
2017-11-21T00:24:07.312Z,0.83
2017-11-21T00:26:34.771Z,1.17
2017-11-21T00:29:02.262Z,0.90
2017-11-21T00:31:29.721Z,4.70
2017-11-21T00:33:57.199Z,0.93
2017-11-21T00:36:24.654Z,0.80
2017-11-21T00:38:52.125Z,1.10
2017-11-21T00:41:19.579Z,0.77
2017-11-21T00:43:47.053Z,0.83
2017-11-21T00:46:14.506Z,0.90
2017-11-21T00:48:41.982Z,0.70
2017-11-21T00:51:09.502Z,0.80
2017-11-21T00:53:36.982Z,1.00
2017-11-21T00:56:04.478Z,0.87
2017-11-21T00:58:31.981Z,0.80
2017-11-21T01:00:59.428Z,0.80
2017-11-21T01:03:26.892Z,1.10
2017-11-21T01:05:54.344Z,0.70
2017-11-21T01:08:21.846Z,1.00
2017-11-21T01:10:49.298Z,0.50
2017-11-21T01:13:16.766Z,0.70
2017-11-21T01:15:44.230Z,0.60
2017-11-21T01:18:11.718Z,0.60
2017-11-21T01:20:39.287Z,0.70
2017-11-21T01:23:06.785Z,0.50
2017-11-21T01:25:34.234Z,0.67
2017-11-21T01:28:01.714Z,0.70
2017-11-21T01:30:29.203Z,0.60
2017-11-21T01:32:56.672Z,0.70
2017-11-21T01:35:24.202Z,0.97
2017-11-21T01:37:51.686Z,0.73
2017-11-21T01:40:19.170Z,0.70
2017-11-21T01:42:46.644Z,0.50
2017-11-21T01:45:14.142Z,0.60
2017-11-21T01:47:41.612Z,0.70
2017-11-21T01:50:09.067Z,0.70
2017-11-21T01:52:36.600Z,0.80
2017-11-21T01:55:04.064Z,0.80
2017-11-21T01:57:31.543Z,5.53
2017-11-21T01:59:59.001Z,1.00
2017-11-21T02:02:26.476Z,0.80
2017-11-21T02:04:53.959Z,0.70
2017-11-21T02:07:21.407Z,0.90
2017-11-21T02:09:48.890Z,0.80
2017-11-21T02:12:16.346Z,0.80
2017-11-21T02:14:43.816Z,1.53
2017-11-21T02:17:11.395Z,1.23
2017-11-21T02:19:38.876Z,0.70
2017-11-21T02:22:06.338Z,0.70
2017-11-21T02:24:33.804Z,0.70
2017-11-21T02:27:01.320Z,0.80
2017-11-21T02:29:28.794Z,1.10
2017-11-21T02:31:56.245Z,0.90
2017-11-21T02:34:23.732Z,0.80
2017-11-21T02:36:51.229Z,0.63
2017-11-21T02:39:18.706Z,0.70
2017-11-21T02:41:46.225Z,0.67
2017-11-21T02:44:13.812Z,0.73
2017-11-21T02:46:41.299Z,0.67
2017-11-21T02:49:08.777Z,1.07
2017-11-21T02:51:36.224Z,0.60
2017-11-21T02:54:03.704Z,0.70
2017-11-21T02:56:31.158Z,0.57
2017-11-21T02:58:58.649Z,1.13
2017-11-21T03:01:26.106Z,0.60
2017-11-21T03:03:53.582Z,0.80
2017-11-21T03:06:21.054Z,0.70
2017-11-21T03:08:48.533Z,0.60
2017-11-21T03:11:16.042Z,0.67
2017-11-21T03:13:43.522Z,0.60
2017-11-21T03:16:11.050Z,0.90
2017-11-21T03:18:38.565Z,0.80
2017-11-21T03:21:17.792Z,0.50
2017-11-21T03:23:57.087Z,1.03
2017-11-21T03:26:24.558Z,0.90
2017-11-21T03:28:52.039Z,0.80
2017-11-21T03:31:19.500Z,1.57
2017-11-21T03:33:46.986Z,0.80
2017-11-21T03:36:14.437Z,0.90
2017-11-21T03:38:41.975Z,0.80
2017-11-21T03:41:09.446Z,1.37
2017-11-21T03:43:36.949Z,1.23
2017-11-21T03:46:04.407Z,1.00
2017-11-21T03:48:31.881Z,1.20
2017-11-21T03:50:59.325Z,0.70
2017-11-21T03:53:26.806Z,1.10
2017-11-21T03:55:54.321Z,0.80
2017-11-21T03:58:21.799Z,0.80
2017-11-21T04:00:54.216Z,0.80
2017-11-21T04:03:21.676Z,0.97
2017-11-21T04:05:49.116Z,0.50
2017-11-21T04:08:16.589Z,0.70
2017-11-21T04:10:44.032Z,0.60
2017-11-21T04:13:11.472Z,0.73
2017-11-21T04:15:38.944Z,0.77
2017-11-21T04:18:06.387Z,0.83
2017-11-21T04:20:33.872Z,0.80
2017-11-21T04:23:01.329Z,0.60
2017-11-21T04:25:28.801Z,1.33
2017-11-21T04:27:56.269Z,0.83
2017-11-21T04:30:23.745Z,2.93
2017-11-21T04:32:51.289Z,0.70
2017-11-21T04:35:18.764Z,0.60
2017-11-21T04:37:46.208Z,2.10
2017-11-21T04:40:13.765Z,0.83
2017-11-21T04:42:41.300Z,1.30
2017-11-21T04:45:08.774Z,1.60
2017-11-21T04:47:36.225Z,0.80
2017-11-21T04:50:03.684Z,1.00
2017-11-21T04:52:31.145Z,2.00
2017-11-21T04:54:58.642Z,1.90
2017-11-21T04:57:26.119Z,1.63
2017-11-21T04:59:53.593Z,1.90
2017-11-21T05:02:21.074Z,1.63
2017-11-21T05:04:48.636Z,2.00
2017-11-21T05:07:16.086Z,3.70
2017-11-21T05:09:43.591Z,2.47
2017-11-21T05:12:11.094Z,2.63
2017-11-21T05:14:38.563Z,2.33
2017-11-21T05:17:06.005Z,2.03
2017-11-21T05:19:33.495Z,2.67
2017-11-21T05:22:01.074Z,2.10
2017-11-21T05:24:28.575Z,2.20
2017-11-21T05:26:56.016Z,2.00
2017-11-21T05:29:23.611Z,2.17
2017-11-21T05:31:51.163Z,1.73
2017-11-21T05:34:18.666Z,2.13
2017-11-21T05:36:46.125Z,1.60
2017-11-21T05:39:13.621Z,1.90
2017-11-21T05:41:41.103Z,1.80
2017-11-21T05:44:08.646Z,1.60
2017-11-21T05:46:36.098Z,1.80
2017-11-21T05:49:03.607Z,1.97
2017-11-21T05:51:31.064Z,1.40
2017-11-21T05:53:58.565Z,1.97
2017-11-21T05:56:26.072Z,9.17
2017-11-21T05:58:53.534Z,2.43
2017-11-21T06:01:21.010Z,1.57
2017-11-21T06:03:48.482Z,1.27
2017-11-21T06:06:15.957Z,1.50
2017-11-21T06:08:43.406Z,3.20
2017-11-21T06:11:10.882Z,5.50
2017-11-21T06:13:38.341Z,1.20
2017-11-21T06:16:05.854Z,1.50
2017-11-21T06:18:33.304Z,3.80
2017-11-21T06:21:00.806Z,3.00
2017-11-21T06:23:28.285Z,1.30
2017-11-21T06:25:56.205Z,1.20
2017-11-21T06:28:23.697Z,1.60
2017-11-21T06:30:51.237Z,1.40
2017-11-21T06:33:18.716Z,1.07
2017-11-21T06:35:46.188Z,1.20
2017-11-21T06:38:13.656Z,1.53
2017-11-21T06:40:41.113Z,0.93
2017-11-21T06:43:08.588Z,1.10
2017-11-21T06:45:36.038Z,1.20
2017-11-21T06:48:03.506Z,1.23
2017-11-21T06:50:30.960Z,0.80
2017-11-21T06:52:58.546Z,1.10
2017-11-21T06:55:25.992Z,1.00
2017-11-21T06:57:53.435Z,1.30
2017-11-21T07:00:20.931Z,0.70
2017-11-21T07:02:48.496Z,3.73
2017-11-21T07:05:15.965Z,1.10
2017-11-21T07:07:43.420Z,1.37
2017-11-21T07:10:10.885Z,1.10
2017-11-21T07:12:38.332Z,0.80
2017-11-21T07:15:05.823Z,2.47
2017-11-21T07:17:33.283Z,3.00
2017-11-21T07:20:00.827Z,1.33
2017-11-21T07:22:28.294Z,1.83
2017-11-21T07:24:55.754Z,2.27
2017-11-21T07:27:23.228Z,3.17
2017-11-21T07:29:50.725Z,4.80
2017-11-21T07:32:19.042Z,4.43
2017-11-21T07:34:46.513Z,3.47
2017-11-21T07:37:13.989Z,1.50
2017-11-21T07:39:41.463Z,2.50
2017-11-21T07:42:08.939Z,1.50
2017-11-21T07:44:36.401Z,0.83
2017-11-21T07:47:03.927Z,1.00
2017-11-21T07:49:31.393Z,1.27
2017-11-21T07:51:58.852Z,1.20
2017-11-21T07:54:26.396Z,2.53
2017-11-21T07:56:53.853Z,0.80
2017-11-21T07:59:21.404Z,1.27
2017-11-21T08:01:48.853Z,1.30
2017-11-21T08:04:16.318Z,0.73
2017-11-21T08:06:43.832Z,0.80
2017-11-21T08:09:11.313Z,1.70
2017-11-21T08:11:38.774Z,0.60
2017-11-21T08:14:06.273Z,0.60
2017-11-21T08:16:33.737Z,0.97
2017-11-21T08:19:01.231Z,0.90
2017-11-21T08:21:28.693Z,1.70
2017-11-21T08:23:56.181Z,0.60
2017-11-21T08:26:23.673Z,0.63
2017-11-21T08:28:51.123Z,0.60
2017-11-21T08:31:18.605Z,0.60
2017-11-21T08:33:46.063Z,0.90
2017-11-21T08:36:13.541Z,0.60
2017-11-21T08:38:40.999Z,7.60
2017-11-21T08:41:08.464Z,0.93
2017-11-21T08:43:36.042Z,1.03
2017-11-21T08:46:03.525Z,0.50
2017-11-21T08:48:30.976Z,0.80
2017-11-21T08:50:58.470Z,0.80
2017-11-21T08:53:25.960Z,3.40
2017-11-21T08:55:53.415Z,1.10
2017-11-21T08:58:20.932Z,2.80
2017-11-21T09:00:48.385Z,1.40
2017-11-21T09:03:15.856Z,0.80
2017-11-21T09:05:43.318Z,1.37
2017-11-21T09:08:10.818Z,1.80
2017-11-21T09:10:38.294Z,0.80
2017-11-21T09:13:05.775Z,1.47
2017-11-21T09:15:33.237Z,1.73
2017-11-21T09:18:00.735Z,1.43
2017-11-21T09:20:28.244Z,1.33
2017-11-21T09:22:55.729Z,2.57
2017-11-21T09:25:23.208Z,3.17
2017-11-21T09:27:50.674Z,2.30
2017-11-21T09:30:18.144Z,1.80
2017-11-21T09:32:45.609Z,2.50
2017-11-21T09:35:13.101Z,4.10
2017-11-21T09:37:40.620Z,1.00
2017-11-21T09:40:08.091Z,1.00
2017-11-21T09:42:35.626Z,1.40
2017-11-21T09:45:03.117Z,1.07
2017-11-21T09:47:30.572Z,1.20
2017-11-21T09:49:58.045Z,0.70
2017-11-21T09:52:25.553Z,0.80
2017-11-21T09:54:53.002Z,0.80
2017-11-21T09:57:20.518Z,6.33
2017-11-21T09:59:47.974Z,0.80
2017-11-21T10:02:15.461Z,0.60
2017-11-21T10:04:42.908Z,1.83
2017-11-21T10:07:10.378Z,0.70
2017-11-21T10:09:37.834Z,1.10
2017-11-21T10:12:05.311Z,0.60
2017-11-21T10:14:32.760Z,0.80
2017-11-21T10:17:00.310Z,0.70
2017-11-21T10:19:27.792Z,0.60
2017-11-21T10:21:55.249Z,0.60
2017-11-21T10:24:22.729Z,0.70
2017-11-21T10:26:50.180Z,0.73
2017-11-21T10:29:17.666Z,2.90
2017-11-21T10:31:45.134Z,0.77
2017-11-21T10:34:12.609Z,0.70
2017-11-21T10:36:40.173Z,0.50
2017-11-21T10:39:07.772Z,1.37
2017-11-21T10:41:35.225Z,1.57
2017-11-21T10:44:02.719Z,2.30
2017-11-21T10:46:30.184Z,0.40
2017-11-21T10:48:57.636Z,0.63
2017-11-21T10:51:25.109Z,1.57
2017-11-21T10:53:52.588Z,0.77
2017-11-21T10:56:20.121Z,0.50
2017-11-21T10:58:47.584Z,0.60
2017-11-21T11:01:15.040Z,0.70
2017-11-21T11:03:42.536Z,0.57
2017-11-21T11:06:10.024Z,0.70
2017-11-21T11:08:37.476Z,4.13
2017-11-21T11:11:04.972Z,1.10
2017-11-21T11:13:32.454Z,2.03
2017-11-21T11:15:59.977Z,3.27
2017-11-21T11:18:27.455Z,0.70
2017-11-21T11:20:54.913Z,0.80
2017-11-21T11:23:22.434Z,1.13
2017-11-21T11:25:49.891Z,1.47
2017-11-21T11:28:17.370Z,0.90
2017-11-21T11:30:44.831Z,1.07
2017-11-21T11:33:12.321Z,0.80
2017-11-21T11:35:39.784Z,1.50
2017-11-21T11:38:07.270Z,1.33
2017-11-21T11:40:34.721Z,2.00
2017-11-21T11:43:02.229Z,1.57
2017-11-21T11:45:30.169Z,1.70
2017-11-21T11:47:57.652Z,1.80
2017-11-21T11:50:25.189Z,1.40
2017-11-21T11:52:52.668Z,1.83
2017-11-21T11:55:20.155Z,2.40
2017-11-21T11:57:47.613Z,2.50
2017-11-21T12:00:15.097Z,2.97
2017-11-21T12:02:42.554Z,2.67
2017-11-21T12:05:10.040Z,2.63
2017-11-21T12:07:37.506Z,3.00
2017-11-21T12:10:04.990Z,3.40
2017-11-21T12:12:32.454Z,3.17
2017-11-21T12:14:59.986Z,7.40
2017-11-21T12:17:27.976Z,3.20
2017-11-21T12:19:55.482Z,3.10
2017-11-21T12:22:22.956Z,3.70
2017-11-21T12:24:50.409Z,3.70
2017-11-21T12:27:17.899Z,2.87
2017-11-21T12:29:45.348Z,2.50
2017-11-21T12:32:12.824Z,2.70
2017-11-21T12:34:40.325Z,2.50
2017-11-21T12:37:07.788Z,2.63
2017-11-21T12:39:35.246Z,1.63
2017-11-21T12:42:02.717Z,2.33
2017-11-21T12:44:30.183Z,2.50
2017-11-21T12:46:57.660Z,2.30
2017-11-21T12:49:25.160Z,2.40
2017-11-21T12:51:52.627Z,1.27
2017-11-21T12:54:20.082Z,1.63
2017-11-21T12:56:47.636Z,2.20
2017-11-21T12:59:15.196Z,1.40
2017-11-21T13:01:42.650Z,2.00
2017-11-21T13:04:10.134Z,3.43
2017-11-21T13:06:37.674Z,4.00
2017-11-21T13:09:05.236Z,1.80
2017-11-21T13:11:32.741Z,2.37
2017-11-21T13:14:00.218Z,1.73
2017-11-21T13:16:27.938Z,2.40
2017-11-21T13:18:55.420Z,2.90
2017-11-21T13:21:22.878Z,2.20
2017-11-21T13:23:50.361Z,2.10
2017-11-21T13:26:17.863Z,2.03
2017-11-21T13:28:45.341Z,2.70
2017-11-21T13:31:12.806Z,2.97
2017-11-21T13:33:40.291Z,2.53
2017-11-21T13:36:07.878Z,9.33
2017-11-21T13:38:35.352Z,2.00
2017-11-21T13:41:02.852Z,2.33
2017-11-21T13:43:30.351Z,2.63
2017-11-21T13:45:57.866Z,2.57
2017-11-21T13:48:25.326Z,3.60
2017-11-21T13:50:52.843Z,2.30
2017-11-21T13:53:20.310Z,4.00
2017-11-21T13:55:47.807Z,3.07
2017-11-21T13:58:15.289Z,3.03
2017-11-21T14:00:42.795Z,3.27
2017-11-21T14:03:10.246Z,7.43
2017-11-21T14:05:37.734Z,4.00
2017-11-21T14:08:05.230Z,6.10
2017-11-21T14:10:33.445Z,5.07
2017-11-21T14:13:00.949Z,3.80
2017-11-21T14:15:28.410Z,4.60
2017-11-21T14:17:55.890Z,3.47
2017-11-21T14:20:23.600Z,3.80
2017-11-21T14:22:52.088Z,5.30
2017-11-21T14:25:19.554Z,3.23
2017-11-21T14:27:47.037Z,3.53
2017-11-21T14:30:14.489Z,2.83
2017-11-21T14:32:42.047Z,5.53
2017-11-21T14:35:09.519Z,2.93
2017-11-21T14:37:37.023Z,5.43
2017-11-21T14:40:04.515Z,3.60
2017-11-21T14:42:31.988Z,3.73
2017-11-21T14:44:59.461Z,3.73
2017-11-21T14:47:26.917Z,4.40
2017-11-21T14:49:54.412Z,4.17
2017-11-21T14:52:21.872Z,4.70
2017-11-21T14:54:49.331Z,4.93
2017-11-21T14:57:16.823Z,7.53
2017-11-21T14:59:44.284Z,5.50
2017-11-21T15:02:11.758Z,4.93
2017-11-21T15:04:39.246Z,4.80
2017-11-21T15:07:06.772Z,4.50
2017-11-21T15:09:34.278Z,5.00
2017-11-21T15:12:01.864Z,9.83
2017-11-21T15:14:29.357Z,4.07
2017-11-21T15:16:56.885Z,5.53
2017-11-21T15:19:24.360Z,4.07
2017-11-21T15:21:51.849Z,4.97
2017-11-21T15:24:19.309Z,5.03
2017-11-21T15:26:46.789Z,6.33
2017-11-21T15:29:14.278Z,5.47
2017-11-21T15:31:41.730Z,6.60
2017-11-21T15:34:09.256Z,6.63
2017-11-21T15:36:36.720Z,7.80
2017-11-21T15:39:04.215Z,6.10
2017-11-21T15:41:31.702Z,6.53
2017-11-21T15:43:59.186Z,6.00
2017-11-21T15:46:26.797Z,9.43
2017-11-21T15:48:54.273Z,6.40
2017-11-21T15:51:21.720Z,4.93
2017-11-21T15:53:49.309Z,6.10
2017-11-21T15:56:16.784Z,6.77
2017-11-21T15:58:44.248Z,6.70
2017-11-21T16:01:11.790Z,7.03
2017-11-21T16:03:39.338Z,5.83
2017-11-21T16:06:06.910Z,7.07
2017-11-21T16:08:34.435Z,6.37
2017-11-21T16:11:01.921Z,6.77
2017-11-21T16:13:29.573Z,6.30
2017-11-21T16:15:57.339Z,6.43
2017-11-21T16:18:24.846Z,10.10
2017-11-21T16:20:52.334Z,6.57
2017-11-21T16:23:19.817Z,12.30
2017-11-21T16:25:47.283Z,6.43
2017-11-21T16:28:14.758Z,6.47
2017-11-21T16:30:42.295Z,8.73
2017-11-21T16:33:09.806Z,7.53
2017-11-21T16:35:37.252Z,6.43
2017-11-21T16:38:04.725Z,7.90
2017-11-21T16:40:32.186Z,7.83
2017-11-21T16:42:59.674Z,7.67
2017-11-21T16:45:27.134Z,7.10
2017-11-21T16:47:54.613Z,7.00
2017-11-21T16:50:22.080Z,7.00
2017-11-21T16:52:49.552Z,10.53
2017-11-21T16:55:17.005Z,7.10
2017-11-21T16:57:44.515Z,7.37
2017-11-21T17:00:11.979Z,9.50
2017-11-21T17:02:39.445Z,6.93
2017-11-21T17:05:06.921Z,6.63
2017-11-21T17:07:34.391Z,7.33
2017-11-21T17:10:01.908Z,10.30
2017-11-21T17:12:29.375Z,7.20
2017-11-21T17:14:56.859Z,6.73
2017-11-21T17:17:24.321Z,10.37
2017-11-21T17:19:51.809Z,8.47
2017-11-21T17:22:19.336Z,9.30
2017-11-21T17:24:46.853Z,11.30
2017-11-21T17:27:14.320Z,7.50
2017-11-21T17:29:41.777Z,9.17
2017-11-21T17:32:09.253Z,10.33
2017-11-21T17:34:36.777Z,6.60
2017-11-21T17:37:04.332Z,13.07
2017-11-21T17:39:31.804Z,7.90
2017-11-21T17:41:59.353Z,8.53
2017-11-21T17:44:26.800Z,8.60
2017-11-21T17:46:54.273Z,7.87
2017-11-21T17:49:21.743Z,8.43
2017-11-21T17:51:49.219Z,8.47
2017-11-21T17:54:16.726Z,11.73
2017-11-21T17:56:44.204Z,10.27
2017-11-21T17:59:11.675Z,14.23
2017-11-21T18:01:39.148Z,7.00
2017-11-21T18:04:06.638Z,7.37
2017-11-21T18:06:34.095Z,7.13
2017-11-21T18:09:01.572Z,12.47
2017-11-21T18:11:29.080Z,11.60
2017-11-21T18:13:56.564Z,6.27
2017-11-21T18:16:24.026Z,10.00
2017-11-21T18:18:51.502Z,7.23
2017-11-21T18:21:18.952Z,6.47
2017-11-21T18:23:46.445Z,10.87
2017-11-21T18:26:13.902Z,9.57
2017-11-21T18:28:41.373Z,6.90
2017-11-21T18:31:08.834Z,7.13
2017-11-21T18:33:36.391Z,11.03
2017-11-21T18:36:03.883Z,10.23
2017-11-21T18:38:31.332Z,6.00
2017-11-21T18:40:58.821Z,11.60
2017-11-21T18:43:26.364Z,6.43
2017-11-21T18:45:53.838Z,9.50
2017-11-21T18:48:21.338Z,5.47
2017-11-21T18:50:48.814Z,5.37
2017-11-21T18:53:16.282Z,4.70
2017-11-21T18:55:43.758Z,5.10
2017-11-21T18:58:11.212Z,4.90
2017-11-21T19:00:38.703Z,5.37
2017-11-21T19:03:06.163Z,3.57
2017-11-21T19:05:33.630Z,5.17
2017-11-21T19:08:01.105Z,3.60
2017-11-21T19:10:28.561Z,4.50
2017-11-21T19:12:56.038Z,6.10
2017-11-21T19:15:23.509Z,4.50
2017-11-21T19:17:50.973Z,6.93
2017-11-21T19:20:18.421Z,5.07
2017-11-21T19:22:45.898Z,3.80
2017-11-21T19:25:13.362Z,3.93
2017-11-21T19:27:40.834Z,3.80
2017-11-21T19:30:08.298Z,3.80
2017-11-21T19:32:35.771Z,3.43
2017-11-21T19:35:03.314Z,3.40
2017-11-21T19:37:30.799Z,3.63
2017-11-21T19:39:58.285Z,3.53
2017-11-21T19:42:25.766Z,4.23
2017-11-21T19:44:53.223Z,4.40
2017-11-21T19:47:20.708Z,4.73
2017-11-21T19:49:48.174Z,25.03
2017-11-21T19:52:15.628Z,5.53
2017-11-21T19:54:43.141Z,3.83
2017-11-21T19:57:10.598Z,4.40
2017-11-21T19:59:38.093Z,4.10
2017-11-21T20:02:05.561Z,3.27
2017-11-21T20:04:33.055Z,3.70
2017-11-21T20:07:00.518Z,4.70
2017-11-21T20:09:27.992Z,4.90
2017-11-21T20:11:55.463Z,4.30
2017-11-21T20:14:22.956Z,4.37
2017-11-21T20:16:50.409Z,7.53
2017-11-21T20:19:18.008Z,5.40
2017-11-21T20:21:45.467Z,11.83
2017-11-21T20:24:12.951Z,9.23
2017-11-21T20:26:40.421Z,4.90
2017-11-21T20:29:07.888Z,5.47
2017-11-21T20:31:35.346Z,5.33
2017-11-21T20:34:02.826Z,5.40
2017-11-21T20:36:30.294Z,7.40
2017-11-21T20:38:57.774Z,5.90
2017-11-21T20:41:25.314Z,7.40
2017-11-21T20:43:52.798Z,7.20
2017-11-21T20:46:20.317Z,6.87
2017-11-21T20:48:47.810Z,6.73
2017-11-21T20:51:15.263Z,7.43
2017-11-21T20:53:42.704Z,6.13
2017-11-21T20:56:10.179Z,6.70
2017-11-21T20:58:37.641Z,11.93
2017-11-21T21:01:05.161Z,7.40
2017-11-21T21:03:32.670Z,6.60
2017-11-21T21:06:00.173Z,7.93
2017-11-21T21:08:27.760Z,8.20
2017-11-21T21:10:55.302Z,8.73
2017-11-21T21:13:22.770Z,7.37
2017-11-21T21:15:50.252Z,7.73
2017-11-21T21:18:17.723Z,10.00
2017-11-21T21:20:45.214Z,10.50
2017-11-21T21:23:12.695Z,7.10
2017-11-21T21:25:40.194Z,12.40
2017-11-21T21:28:07.657Z,17.47
2017-11-21T21:30:35.155Z,8.20
2017-11-21T21:33:02.647Z,8.23
2017-11-21T21:35:30.473Z,8.37
2017-11-21T21:37:57.941Z,8.30
2017-11-21T21:40:25.497Z,12.37
2017-11-21T21:42:52.973Z,7.73
2017-11-21T21:45:20.463Z,8.50
2017-11-21T21:47:47.974Z,8.37
2017-11-21T21:50:15.461Z,13.50
2017-11-21T21:52:42.930Z,13.40
2017-11-21T21:55:10.415Z,11.80
2017-11-21T21:57:37.877Z,12.20
2017-11-21T22:00:05.345Z,13.30
2017-11-21T22:02:32.806Z,7.97
2017-11-21T22:05:00.292Z,8.13
2017-11-21T22:07:27.818Z,7.80
2017-11-21T22:09:55.294Z,8.60
2017-11-21T22:12:22.770Z,8.87
2017-11-21T22:14:50.271Z,8.63
2017-11-21T22:17:17.733Z,8.70
2017-11-21T22:19:45.279Z,9.87
2017-11-21T22:22:12.738Z,7.63
2017-11-21T22:24:40.212Z,8.30
2017-11-21T22:27:07.777Z,8.50
2017-11-21T22:29:35.256Z,8.80
2017-11-21T22:32:02.761Z,8.73
2017-11-21T22:34:30.225Z,11.27
2017-11-21T22:36:57.819Z,9.93
2017-11-21T22:39:25.263Z,8.30
2017-11-21T22:41:52.731Z,11.40
2017-11-21T22:44:20.181Z,9.97
2017-11-21T22:46:47.653Z,8.23
2017-11-21T22:49:15.188Z,8.10
2017-11-21T22:51:42.657Z,7.80
2017-11-21T22:54:10.109Z,6.90
2017-11-21T22:56:37.685Z,6.93
2017-11-21T22:59:05.237Z,8.63
2017-11-21T23:01:32.709Z,11.17
2017-11-21T23:04:00.198Z,12.57
2017-11-21T23:06:27.689Z,6.33
2017-11-21T23:08:55.163Z,11.00
2017-11-21T23:11:22.633Z,6.43
2017-11-21T23:13:50.102Z,15.93
2017-11-21T23:16:17.566Z,7.00
2017-11-21T23:18:45.184Z,6.37
2017-11-21T23:21:12.632Z,7.20
2017-11-21T23:23:40.210Z,6.07
2017-11-21T23:26:07.656Z,5.70
2017-11-21T23:28:35.214Z,6.33
2017-11-21T23:31:02.664Z,5.83
2017-11-21T23:33:30.157Z,5.90
2017-11-21T23:35:57.605Z,5.60
2017-11-21T23:38:25.089Z,6.00
2017-11-21T23:40:52.560Z,6.00
2017-11-21T23:43:20.018Z,5.53
2017-11-21T23:45:47.493Z,4.60
2017-11-21T23:48:14.977Z,5.87
2017-11-21T23:50:42.444Z,6.33
2017-11-21T23:53:09.916Z,4.73
2017-11-21T23:55:37.396Z,5.43
2017-11-21T23:58:04.851Z,6.30
